Sacramento, CA (95816)

5:12 AM PDT on August 28, 2016 (GMT -0700)
37th between J and M | | Change Station

Elev 33 ft 38.57 °N, 121.46 °W | Updated 92 days ago

Clear
Clear
58 °F
Feels Like 58 °F
N
7
Wind Variable Wind from South
Gusts mph

Today
High -- | Low -- °F
--% Chance of Precip.
Yesterday
High -- | Low -- °F
Precip. -- in
Pressure 30.02 in
Visibility 10.0 miles
Clouds Clear
Dew Point 53 °F
Humidity 83%
Rainfall in
Snow Depth Not available.
6:32 AM 7:40 PM
Waning Crescent, 16% visible
METAR KSAC 281153Z AUTO 19007KT 10SM CLR 14/11 A3002 RMK AO2 SLP164 T01390106 10161 20139 51007 TSNO
Pressure 30.02 in
Visibility 10.0 miles
Clouds Clear
Dew Point 53 °F
Humidity 83%
Rainfall in
Snow Depth Not available.
6:32 AM 7:40 PM
Waning Crescent, 16% visible
METAR KSAC 281153Z AUTO 19007KT 10SM CLR 14/11 A3002 RMK AO2 SLP164 T01390106 10161 20139 51007 TSNO

10-Day Weather Forecast

Almanac

Astronomy

Aug. 28, 2016 Rise Set
Actual Time
Civil Twilight
Nautical Twilight
Astronomical Twilight
Moon
Length of Visible Light
Length of Day
Tomorrow will be .
, % of the Moon is Illuminated

Today's Extremes

State Highs State Lows

Community

WunderPhotos

Upload Photos

1,935,557 photos uploaded!

WunderBlog® & News

Nearby

Air Quality

  Air Quality AQ Index Pollutant
Not available.

Snow Depth

Station Depth Elevation

Earthquake Activity

City Distance Mag. Time & Date
Minimum magnitude displayed is 2.5.

Coastal Water Temperatures

Place Temperature

Stations

Nearby Weather Stations

Station Location Temp. Windchill Dew Point Humidity Wind Precip. Elev Updated Type
                   

Watches & Warnings

There are currently no watches in effect.